Time;durP1;ratioP1;P1;durP2;ratioP2;P2;SDS_P1;SDS_P2;PMS_P1;PMS_P2;Temp;Humidity;BMP_temperature;BMP_pressure;BME280_temperature;BME280_humidity;BME280_pressure;Samples;Min_cycle;Max_cycle;Signal;HPM_P1;HPM_P2
2022/05/14 00:00:48;;;;;;;4.88;2.60;;;16.40;99.90;;;;;;5121805;27;20483;-93
2022/05/14 00:03:15;;;;;;;7.45;3.20;;;16.40;99.90;;;;;;5143125;27;20011;-94
2022/05/14 00:05:42;;;;;;;8.23;3.03;;;16.30;99.90;;;;;;5143125;27;20054;-91
2022/05/14 00:08:08;;;;;;;4.22;3.00;;;16.30;99.90;;;;;;5126268;27;20027;-92
2022/05/14 00:13:03;;;;;;;7.78;3.00;;;16.30;99.90;;;;;;5122881;27;20026;-92
2022/05/14 00:13:21;;;;;;;6.07;3.28;;;16.30;99.90;;;;;;5138661;27;20163;-93
2022/05/14 00:15:47;;;;;;;6.32;2.97;;;16.30;99.90;;;;;;5119892;27;20134;-93
2022/05/14 00:18:12;;;;;;;6.63;3.00;;;16.30;99.90;;;;;;5120081;27;20642;-93
2022/05/14 00:20:39;;;;;;;4.32;2.88;;;16.30;99.90;;;;;;5119413;27;20154;-93
2022/05/14 00:23:06;;;;;;;5.72;2.65;;;16.30;99.90;;;;;;5138467;27;20065;-93
2022/05/14 00:25:33;;;;;;;4.28;2.65;;;16.30;99.90;;;;;;5137832;27;20054;-85
2022/05/14 00:27:59;;;;;;;7.35;2.58;;;16.30;99.90;;;;;;5118983;27;20483;-84
2022/05/14 00:30:26;;;;;;;3.67;2.90;;;16.20;99.90;;;;;;5110234;28;20391;-86
2022/05/14 00:32:52;;;;;;;4.10;3.20;;;16.30;99.90;;;;;;5098258;28;20054;-94
2022/05/14 00:35:19;;;;;;;6.90;3.28;;;16.20;99.90;;;;;;5104758;28;20027;-95
2022/05/14 00:37:45;;;;;;;5.97;3.42;;;16.10;99.90;;;;;;5104324;28;20030;-88
2022/05/14 00:40:19;;;;;;;4.03;2.90;;;16.10;99.90;;;;;;5116609;28;20103;-89
2022/05/14 00:42:44;;;;;;;5.18;2.70;;;16.00;99.90;;;;;;5098550;28;20488;-88
2022/05/14 00:45:13;;;;;;;5.80;3.05;;;16.00;99.90;;;;;;5098567;28;20032;-89
2022/05/14 00:47:41;;;;;;;5.85;3.88;;;16.00;99.90;;;;;;5098720;28;20023;-88
2022/05/14 00:50:16;;;;;;;8.18;3.97;;;15.90;99.90;;;;;;5098235;28;20027;-89
2022/05/14 00:52:44;;;;;;;4.15;3.10;;;15.90;99.90;;;;;;5098588;28;20031;-88
2022/05/14 00:55:10;;;;;;;12.48;3.55;;;15.80;99.90;;;;;;5098622;28;20036;-88
2022/05/14 00:57:39;;;;;;;6.10;3.45;;;15.70;99.90;;;;;;5097992;28;20047;-89
2022/05/14 01:00:15;;;;;;;5.40;3.95;;;15.70;99.90;;;;;;5098122;28;20070;-89
2022/05/14 01:02:41;;;;;;;5.22;3.42;;;15.60;99.90;;;;;;5098125;28;20020;-88
2022/05/14 01:05:10;;;;;;;5.10;3.88;;;15.40;99.90;;;;;;5098335;28;20032;-88
2022/05/14 01:07:38;;;;;;;7.72;3.88;;;15.40;99.90;;;;;;5098083;28;20031;-89
2022/05/14 01:10:06;;;;;;;6.68;4.15;;;15.30;99.90;;;;;;5098076;28;20055;-89
2022/05/14 01:12:33;;;;;;;5.45;3.95;;;15.20;99.90;;;;;;5098556;28;20058;-90
2022/05/14 01:15:14;;;;;;;6.43;3.75;;;15.10;99.90;;;;;;5100754;28;20040;-89
2022/05/14 01:17:40;;;;;;;5.53;4.60;;;15.10;99.90;;;;;;5098634;28;20112;-92
2022/05/14 01:20:06;;;;;;;6.97;4.40;;;15.00;99.90;;;;;;5116325;28;20465;-93
2022/05/14 01:23:00;;;;;;;9.15;5.05;;;15.00;99.90;;;;;;5097639;28;20020;-93
2022/05/14 01:28:20;;;;;;;4.70;4.10;;;14.90;99.90;;;;;;5116244;28;20038;-90
2022/05/14 01:30:51;;;;;;;6.95;4.90;;;14.90;99.90;;;;;;5107418;27;20491;-95
2022/05/14 01:33:16;;;;;;;5.25;4.03;;;15.00;99.90;;;;;;5118243;27;20106;-96
2022/05/14 01:35:42;;;;;;;;;;;15.00;99.90;;;;;;5118232;27;20172;-95
2022/05/14 01:38:08;;;;;;;7.57;4.05;;;15.00;99.90;;;;;;5109023;28;20288;-96
2022/05/14 01:40:34;;;;;;;8.93;4.03;;;15.00;99.90;;;;;;5101041;28;20139;-95
2022/05/14 01:42:59;;;;;;;;;;;15.00;99.90;;;;;;5098173;28;20459;-95
2022/05/14 01:45:28;;;;;;;6.25;4.03;;;15.00;99.90;;;;;;5097760;28;19907;-95
2022/05/14 01:47:54;;;;;;;6.65;4.00;;;14.90;99.90;;;;;;5097756;28;20020;-96
2022/05/14 01:50:19;;;;;;;;;;;14.90;99.90;;;;;;5098483;28;20020;-95
2022/05/14 01:52:45;;;;;;;5.95;3.67;;;14.90;99.90;;;;;;5115959;28;19990;-95
2022/05/14 01:55:10;;;;;;;;;;;14.80;99.90;;;;;;5098080;28;20102;-95
2022/05/14 01:57:36;;;;;;;5.30;3.13;;;14.80;99.90;;;;;;5097266;28;19956;-96
2022/05/14 02:00:08;;;;;;;3.63;3.00;;;14.80;99.90;;;;;;5096785;28;20020;-95
2022/05/14 02:02:34;;;;;;;4.85;3.80;;;14.80;99.90;;;;;;5094882;28;20114;-96
2022/05/14 02:05:00;;;;;;;;;;;14.70;99.90;;;;;;5096299;28;20031;-95
2022/05/14 02:07:25;;;;;;;8.55;3.88;;;14.70;99.90;;;;;;5115292;28;20409;-96
2022/05/14 02:09:51;;;;;;;;;;;14.60;99.90;;;;;;5097925;28;20499;-94
2022/05/14 02:12:17;;;;;;;5.65;3.13;;;14.50;99.90;;;;;;5097556;28;19910;-95
2022/05/14 02:14:44;;;;;;;4.28;2.83;;;14.50;99.90;;;;;;5096185;28;20084;-96
2022/05/14 02:17:09;;;;;;;4.63;2.72;;;14.40;99.90;;;;;;5097115;28;20118;-96
2022/05/14 02:19:35;;;;;;;;;;;14.40;99.90;;;;;;5098608;27;20055;-95
2022/05/14 02:22:01;;;;;;;5.75;3.17;;;14.40;99.90;;;;;;5117133;27;19903;-96
2022/05/14 02:24:26;;;;;;;;;;;14.40;99.90;;;;;;5117705;27;20027;-93
2022/05/14 02:26:52;;;;;;;5.78;3.67;;;14.30;99.90;;;;;;5117532;27;20462;-95
2022/05/14 02:29:18;;;;;;;5.93;2.72;;;14.30;99.90;;;;;;5117521;27;20023;-95
2022/05/14 02:31:45;;;;;;;6.78;3.58;;;14.30;99.90;;;;;;5117429;27;20030;-95
2022/05/14 02:34:10;;;;;;;7.65;3.28;;;14.30;99.90;;;;;;5116784;27;20023;-95
2022/05/14 02:36:36;;;;;;;;;;;14.30;99.90;;;;;;5117235;27;20031;-95
2022/05/14 02:39:03;;;;;;;7.20;2.83;;;14.20;99.90;;;;;;5116842;27;19910;-95
2022/05/14 02:41:28;;;;;;;7.20;2.80;;;14.20;99.90;;;;;;5116761;27;20027;-96
2022/05/14 02:43:54;;;;;;;;;;;14.10;99.90;;;;;;5117523;27;20023;-95
2022/05/14 02:46:19;;;;;;;5.22;2.83;;;14.10;99.90;;;;;;5116351;27;19937;-96
2022/05/14 02:48:45;;;;;;;;;;;14.00;99.90;;;;;;5117585;27;20031;-95
2022/05/14 02:51:11;;;;;;;5.07;2.90;;;14.00;99.90;;;;;;5117128;27;19926;-95
2022/05/14 02:53:36;;;;;;;12.95;3.30;;;13.90;99.90;;;;;;5117000;27;20019;-96
2022/05/14 02:56:02;;;;;;;;;;;13.90;99.90;;;;;;5135169;27;20404;-96
2022/05/14 03:01:12;;;;;;;4.00;1.95;;;13.90;99.90;;;;;;5135185;27;20034;-96
2022/05/14 03:03:38;;;;;;;12.05;3.45;;;13.80;99.90;;;;;;5134849;27;20027;-95
2022/05/14 03:06:04;;;;;;;6.65;2.88;;;13.80;99.90;;;;;;5116390;27;20039;-95
2022/05/14 03:08:30;;;;;;;4.43;2.80;;;13.80;99.90;;;;;;5119605;27;20125;-94
2022/05/14 03:10:56;;;;;;;;;;;13.70;99.90;;;;;;5116892;27;20082;-95
2022/05/14 03:13:22;;;;;;;4.70;2.90;;;13.70;99.90;;;;;;5116373;27;19986;-96
2022/05/14 03:15:48;;;;;;;6.15;2.63;;;13.60;99.90;;;;;;5116279;27;20031;-95
2022/05/14 03:18:14;;;;;;;6.85;2.55;;;13.60;99.90;;;;;;5132847;27;20078;-92
2022/05/14 03:20:39;;;;;;;;;;;13.60;99.90;;;;;;5140038;27;20011;-94
2022/05/14 03:23:05;;;;;;;4.97;3.13;;;13.60;99.90;;;;;;5129936;27;19912;-93
2022/05/14 03:25:31;;;;;;;;;;;13.60;99.90;;;;;;5140314;27;20023;-94
2022/05/14 03:27:57;;;;;;;8.77;2.95;;;13.60;99.90;;;;;;5116855;27;19910;-95
2022/05/14 03:30:22;;;;;;;15.27;2.95;;;13.60;99.90;;;;;;5116871;27;20069;-95
2022/05/14 03:32:48;;;;;;;;;;;13.70;99.90;;;;;;5118453;28;20106;-93
2022/05/14 03:35:13;;;;;;;6.40;2.80;;;13.70;99.90;;;;;;5116140;27;19918;-95
2022/05/14 03:37:39;;;;;;;;;;;13.80;99.90;;;;;;5116581;28;20023;-95
2022/05/14 03:40:06;;;;;;;10.20;4.28;;;13.80;99.90;;;;;;5116366;28;19907;-94
2022/05/14 03:42:31;;;;;;;6.97;2.80;;;13.80;99.90;;;;;;5116264;28;20027;-95
2022/05/14 03:44:57;;;;;;;;;;;13.90;99.90;;;;;;5116491;28;20114;-95
2022/05/14 03:47:23;;;;;;;13.38;2.65;;;14.00;99.90;;;;;;5116206;28;19903;-95
2022/05/14 03:49:48;;;;;;;;;;;14.10;99.90;;;;;;5116255;28;20015;-95
2022/05/14 03:52:14;;;;;;;10.63;2.88;;;14.10;99.90;;;;;;5115786;28;19948;-95
2022/05/14 03:54:42;;;;;;;4.72;2.38;;;14.20;99.90;;;;;;5115528;28;20122;-95
2022/05/14 03:57:08;;;;;;;8.85;2.90;;;14.40;99.90;;;;;;5115844;28;20016;-95
2022/05/14 03:59:33;;;;;;;;;;;14.40;99.90;;;;;;5116308;28;20024;-93
2022/05/14 04:02:00;;;;;;;6.22;3.28;;;14.50;99.90;;;;;;5115800;28;20405;-95
2022/05/14 04:04:26;;;;;;;5.68;3.33;;;14.60;99.90;;;;;;5115847;28;20028;-95
2022/05/14 04:06:53;;;;;;;10.05;3.30;;;14.80;99.90;;;;;;5099216;28;20048;-95
2022/05/14 04:09:19;;;;;;;4.57;2.67;;;14.80;99.90;;;;;;5091396;28;20127;-95
2022/05/14 04:11:46;;;;;;;6.60;2.60;;;14.90;99.90;;;;;;5092066;28;20066;-95
2022/05/14 04:14:12;;;;;;;5.50;2.20;;;15.10;99.90;;;;;;5091952;28;20024;-94
2022/05/14 04:16:38;;;;;;;6.35;2.78;;;15.40;99.90;;;;;;5092070;28;20119;-96
2022/05/14 04:19:04;;;;;;;4.82;2.85;;;15.70;99.90;;;;;;5092994;28;20052;-95
2022/05/14 04:21:30;;;;;;;8.25;2.35;;;16.00;99.90;;;;;;5092288;28;20028;-95
2022/05/14 04:23:56;;;;;;;4.78;2.40;;;16.20;99.90;;;;;;5092953;28;20115;-95
2022/05/14 04:26:24;;;;;;;4.25;2.40;;;16.40;99.90;;;;;;5092880;28;20060;-95
2022/05/14 04:28:50;;;;;;;5.30;2.65;;;16.50;99.90;;;;;;5091817;28;20119;-94
2022/05/14 04:31:15;;;;;;;9.30;4.07;;;16.60;99.90;;;;;;5093730;28;20028;-95
2022/05/14 04:33:41;;;;;;;9.70;3.72;;;16.80;99.90;;;;;;5091376;28;20031;-94
2022/05/14 04:36:07;;;;;;;5.75;3.10;;;16.90;99.90;;;;;;5091930;28;20036;-94
2022/05/14 04:38:33;;;;;;;5.90;3.22;;;17.20;99.90;;;;;;5096213;28;20020;-95
2022/05/14 04:40:58;;;;;;;5.80;2.00;;;17.30;99.90;;;;;;5095609;28;20036;-95
2022/05/14 04:43:24;;;;;;;3.80;1.60;;;17.50;99.90;;;;;;5094957;28;20024;-94
2022/05/14 04:45:50;;;;;;;3.92;1.77;;;17.60;99.90;;;;;;5095716;28;20065;-95
2022/05/14 04:48:16;;;;;;;4.72;1.45;;;17.70;99.90;;;;;;5095589;28;20028;-95
2022/05/14 04:50:41;;;;;;;3.70;1.60;;;17.90;99.90;;;;;;5093619;28;20020;-96
2022/05/14 04:53:08;;;;;;;5.15;2.63;;;18.10;99.90;;;;;;5093008;28;20119;-95
2022/05/14 04:55:34;;;;;;;5.93;3.20;;;18.20;99.90;;;;;;5095319;28;20040;-95
2022/05/14 04:57:59;;;;;;;6.43;2.90;;;18.30;99.90;;;;;;5094692;28;20028;-95
2022/05/14 05:00:26;;;;;;;5.32;2.67;;;18.40;99.90;;;;;;5094925;28;20038;-95
2022/05/14 05:05:36;;;;;;;6.22;3.22;;;18.70;99.90;;;;;;5100803;27;20042;-96
2022/05/14 05:08:01;;;;;;;5.75;3.00;;;18.90;99.90;;;;;;5119138;27;20337;-96
2022/05/14 05:10:28;;;;;;;8.43;3.90;;;19.00;99.90;;;;;;5118657;27;20031;-96
2022/05/14 05:12:53;;;;;;;9.10;2.47;;;19.20;99.90;;;;;;5118713;27;20064;-96
2022/05/14 05:15:19;;;;;;;5.32;2.97;;;19.40;99.90;;;;;;5119604;27;20043;-95
2022/05/14 05:17:45;;;;;;;10.60;2.40;;;19.60;99.90;;;;;;5118734;27;20068;-95
2022/05/14 05:20:11;;;;;;;4.95;2.55;;;19.80;99.90;;;;;;5119439;27;20472;-96
2022/05/14 05:22:38;;;;;;;7.97;2.67;;;19.90;99.90;;;;;;5123264;27;20016;-96
2022/05/14 05:25:09;;;;;;;8.05;2.60;;;20.10;99.90;;;;;;5122432;27;20034;-95
2022/05/14 05:27:36;;;;;;;5.97;2.55;;;20.40;99.90;;;;;;5127241;27;20026;-96
2022/05/14 05:30:03;;;;;;;6.10;1.90;;;20.80;99.90;;;;;;5118368;27;20479;-95
2022/05/14 05:32:29;;;;;;;4.78;1.88;;;20.90;99.90;;;;;;5118312;27;20016;-95
2022/05/14 05:34:55;;;;;;;11.65;2.30;;;21.00;99.90;;;;;;5118801;27;20035;-96
2022/05/14 05:37:20;;;;;;;6.75;2.53;;;21.40;99.40;;;;;;5136679;27;20094;-94
2022/05/14 05:39:46;;;;;;;6.43;2.00;;;21.90;95.90;;;;;;5125021;27;20049;-95
2022/05/14 05:42:12;;;;;;;7.28;2.13;;;22.30;95.00;;;;;;5118883;27;20015;-95
2022/05/14 05:44:38;;;;;;;10.05;1.83;;;22.50;93.90;;;;;;5118962;27;20027;-96
2022/05/14 05:47:06;;;;;;;2.95;1.52;;;22.90;92.10;;;;;;5121377;27;20026;-95
2022/05/14 05:49:37;;;;;;;5.30;2.08;;;23.40;86.10;;;;;;5123257;27;20052;-94
2022/05/14 05:52:04;;;;;;;4.28;2.00;;;24.00;77.70;;;;;;5120796;27;20064;-95
2022/05/14 05:57:14;;;;;;;6.70;2.42;;;25.30;72.10;;;;;;5138049;27;20515;-94
2022/05/14 05:59:39;;;;;;;5.63;2.45;;;25.70;71.50;;;;;;5137268;27;20027;-95
2022/05/14 06:02:06;;;;;;;10.20;3.03;;;26.30;69.00;;;;;;5118405;27;20493;-93
2022/05/14 06:04:32;;;;;;;15.65;3.08;;;26.70;68.20;;;;;;5118686;27;20433;-93
2022/05/14 06:06:57;;;;;;;10.90;3.15;;;27.20;66.40;;;;;;5136892;27;20100;-92
2022/05/14 06:09:26;;;;;;;6.50;2.25;;;27.70;64.60;;;;;;5118783;27;20027;-92
2022/05/14 06:11:52;;;;;;;3.85;2.33;;;28.60;60.80;;;;;;5139172;27;20011;-92
2022/05/14 06:14:18;;;;;;;7.45;2.58;;;29.00;55.70;;;;;;5118720;27;20406;-93
2022/05/14 06:16:44;;;;;;;5.38;2.55;;;29.10;53.90;;;;;;5118949;27;20109;-90
2022/05/14 06:19:10;;;;;;;6.30;2.45;;;29.50;53.00;;;;;;5119260;27;20023;-91
2022/05/14 06:21:39;;;;;;;3.67;2.90;;;29.80;51.70;;;;;;5118929;27;20114;-91
2022/05/14 06:24:07;;;;;;;7.07;3.13;;;29.90;51.30;;;;;;5120084;27;20027;-91
2022/05/14 06:26:32;;;;;;;7.75;2.70;;;30.40;49.10;;;;;;5125598;27;20027;-90
2022/05/14 06:28:59;;;;;;;8.65;3.00;;;30.30;48.30;;;;;;5139959;27;20091;-92
2022/05/14 06:31:25;;;;;;;12.13;2.58;;;29.90;49.80;;;;;;5134718;27;20027;-92
2022/05/14 06:33:51;;;;;;;4.90;2.88;;;29.80;49.00;;;;;;5127801;27;20027;-93
2022/05/14 06:36:17;;;;;;;9.45;3.35;;;30.10;49.40;;;;;;5121004;27;20039;-92
2022/05/14 06:38:42;;;;;;;13.30;3.10;;;30.20;49.10;;;;;;5138138;27;20015;-92
2022/05/14 06:41:12;;;;;;;7.53;3.28;;;30.60;48.10;;;;;;5119877;27;20057;-92
2022/05/14 06:43:38;;;;;;;4.30;2.53;;;30.50;47.30;;;;;;5120116;27;20026;-90
2022/05/14 06:46:04;;;;;;;5.88;3.00;;;30.30;46.80;;;;;;5119492;27;20120;-92
2022/05/14 06:48:31;;;;;;;9.40;2.83;;;30.00;46.80;;;;;;5117487;27;20140;-91
2022/05/14 06:51:01;;;;;;;11.40;2.63;;;29.80;47.30;;;;;;5116906;27;20106;-91
2022/05/14 06:53:28;;;;;;;3.55;2.03;;;30.30;47.10;;;;;;5135440;27;20084;-91
2022/05/14 06:55:57;;;;;;;5.60;2.95;;;30.40;44.50;;;;;;5116403;27;20449;-92
2022/05/14 06:58:32;;;;;;;6.07;2.80;;;30.40;45.00;;;;;;5117247;27;20019;-94
2022/05/14 07:00:59;;;;;;;4.50;2.27;;;30.80;44.30;;;;;;5116399;27;20546;-91
2022/05/14 07:08:54;;;;;;;10.05;2.85;;;30.90;41.50;;;;;;5135286;27;20043;-92
2022/05/14 07:11:20;;;;;;;6.25;2.47;;;30.60;42.00;;;;;;5116771;27;20084;-92
2022/05/14 07:13:46;;;;;;;7.40;2.50;;;30.20;43.20;;;;;;5120219;27;20027;-90
2022/05/14 07:16:12;;;;;;;3.35;2.40;;;29.90;44.00;;;;;;5136563;27;20088;-91
2022/05/14 07:18:37;;;;;;;5.57;2.70;;;30.00;42.50;;;;;;5134623;27;20031;-92
2022/05/14 07:21:03;;;;;;;7.82;2.40;;;29.30;44.30;;;;;;5116712;27;20055;-93
2022/05/14 07:23:29;;;;;;;8.02;2.08;;;28.60;45.40;;;;;;5135790;27;20553;-93
2022/05/14 07:26:00;;;;;;;14.80;3.00;;;28.20;46.00;;;;;;5135513;27;20015;-93
2022/05/14 07:28:26;;;;;;;9.77;2.30;;;28.20;46.20;;;;;;5116959;27;20023;-93
2022/05/14 07:30:52;;;;;;;7.03;2.75;;;28.80;45.70;;;;;;5116386;27;20624;-92
2022/05/14 07:33:18;;;;;;;5.32;2.25;;;29.30;45.00;;;;;;5116605;27;20034;-92
2022/05/14 07:35:44;;;;;;;8.02;2.47;;;29.80;43.60;;;;;;5116586;27;20035;-92
2022/05/14 07:38:09;;;;;;;8.13;2.25;;;30.00;42.60;;;;;;5114507;27;20020;-91
2022/05/14 07:40:37;;;;;;;5.07;1.95;;;30.50;40.90;;;;;;5113367;28;20027;-92
2022/05/14 07:43:15;;;;;;;11.57;2.92;;;31.10;38.80;;;;;;5116639;28;20029;-93
2022/05/14 07:45:49;;;;;;;6.65;2.10;;;31.20;38.70;;;;;;5116470;28;20027;-92
2022/05/14 07:48:21;;;;;;;10.98;2.45;;;31.50;37.90;;;;;;5134534;28;20066;-92
2022/05/14 07:50:48;;;;;;;7.68;2.03;;;31.30;37.60;;;;;;5116022;28;20029;-93
2022/05/14 07:53:15;;;;;;;8.90;2.50;;;31.70;37.90;;;;;;5116309;28;20057;-90
2022/05/14 07:55:43;;;;;;;6.40;2.17;;;31.80;37.90;;;;;;5134019;28;20388;-91
2022/05/14 07:58:09;;;;;;;4.00;2.17;;;31.90;36.90;;;;;;5116170;28;20088;-89
2022/05/14 08:00:35;;;;;;;10.35;1.92;;;31.80;36.30;;;;;;5116173;28;20027;-93
2022/05/14 08:03:02;;;;;;;4.50;1.83;;;31.70;37.00;;;;;;5115933;28;20020;-93
2022/05/14 08:05:28;;;;;;;4.25;1.95;;;31.70;36.50;;;;;;5117283;28;20023;-92
2022/05/14 08:07:53;;;;;;;8.57;2.35;;;31.60;37.10;;;;;;5115740;28;20050;-92
2022/05/14 08:10:19;;;;;;;7.57;2.10;;;32.10;35.30;;;;;;5115838;27;20019;-90
2022/05/14 08:12:50;;;;;;;8.20;2.13;;;32.10;35.80;;;;;;5119468;27;20039;-92
2022/05/14 08:15:16;;;;;;;3.30;1.70;;;32.20;35.00;;;;;;5119578;27;20218;-90
2022/05/14 08:17:43;;;;;;;9.57;2.28;;;32.40;33.50;;;;;;5119946;27;20472;-92
2022/05/14 08:20:10;;;;;;;7.85;1.90;;;32.10;35.10;;;;;;5119439;27;20487;-91
2022/05/14 08:25:19;;;;;;;9.40;2.53;;;32.60;34.00;;;;;;5138599;27;20102;-93
2022/05/14 08:27:45;;;;;;;3.63;1.67;;;31.80;33.60;;;;;;5119330;27;20051;-90
2022/05/14 08:30:15;;;;;;;10.70;2.22;;;31.40;34.40;;;;;;5120525;27;20228;-92
2022/05/14 08:32:40;;;;;;;15.07;2.20;;;31.30;34.60;;;;;;5119878;27;20023;-91
2022/05/14 08:35:07;;;;;;;4.72;2.08;;;31.30;35.00;;;;;;5120090;27;20037;-91
2022/05/14 08:37:32;;;;;;;5.80;1.95;;;31.70;33.90;;;;;;5118906;27;20031;-92
2022/05/14 08:39:58;;;;;;;10.05;2.22;;;31.50;33.20;;;;;;5119066;27;20068;-90
2022/05/14 08:42:24;;;;;;;5.95;1.88;;;31.10;33.70;;;;;;5119392;27;20402;-91
2022/05/14 08:44:51;;;;;;;4.13;1.90;;;29.70;35.40;;;;;;5119133;27;20015;-91
2022/05/14 08:47:33;;;;;;;5.63;2.03;;;29.50;36.40;;;;;;5120004;27;20015;-90
2022/05/14 08:49:58;;;;;;;8.50;2.00;;;29.90;37.60;;;;;;5119314;27;20121;-90
2022/05/14 08:52:28;;;;;;;22.30;2.90;;;30.00;37.10;;;;;;5118857;27;20047;-92
2022/05/14 08:55:00;;;;;;;9.15;2.20;;;29.90;35.70;;;;;;5119079;27;20196;-90
2022/05/14 08:58:03;;;;;;;4.63;1.55;;;29.40;35.30;;;;;;5123896;27;20019;-93
2022/05/14 09:00:28;;;;;;;7.65;1.38;;;28.70;36.00;;;;;;5120713;27;20491;-91
2022/05/14 09:02:55;;;;;;;5.18;1.83;;;28.60;37.20;;;;;;5119891;27;20030;-90
2022/05/14 09:05:25;;;;;;;8.38;2.40;;;28.40;36.80;;;;;;5120340;27;20023;-89
2022/05/14 09:07:51;;;;;;;8.35;1.20;;;28.10;37.20;;;;;;5124032;27;20051;-89
2022/05/14 09:10:41;;;;;;;11.48;2.03;;;27.40;38.50;;;;;;5120979;27;20034;-93
2022/05/14 09:13:17;;;;;;;6.47;2.03;;;27.10;39.80;;;;;;5122216;27;20046;-93
2022/05/14 09:15:49;;;;;;;6.00;2.00;;;26.80;41.10;;;;;;5121838;27;20042;-92
2022/05/14 09:18:33;;;;;;;13.85;2.58;;;26.50;42.30;;;;;;5119448;27;20513;-94
2022/05/14 09:21:15;;;;;;;4.68;1.77;;;26.20;43.30;;;;;;5123562;27;20027;-91
2022/05/14 09:23:45;;;;;;;8.48;1.50;;;25.80;43.50;;;;;;5141083;27;20023;-92
2022/05/14 09:26:18;;;;;;;8.98;1.55;;;25.20;42.80;;;;;;5121012;27;20023;-92
2022/05/14 09:28:47;;;;;;;6.50;1.50;;;24.80;43.00;;;;;;5120797;27;20031;-92
2022/05/14 09:31:27;;;;;;;3.97;1.52;;;24.40;44.00;;;;;;5123824;27;20019;-90
2022/05/14 09:34:20;;;;;;;4.82;1.50;;;24.20;43.60;;;;;;5143788;27;20030;-92
2022/05/14 09:36:48;;;;;;;10.27;1.52;;;24.10;43.40;;;;;;5155272;27;20042;-92
2022/05/14 09:39:17;;;;;;;9.43;1.30;;;24.10;43.50;;;;;;5138289;27;20050;-91
2022/05/14 09:41:48;;;;;;;7.18;1.80;;;24.20;43.10;;;;;;5129176;27;20027;-93
2022/05/14 09:44:18;;;;;;;5.45;1.38;;;24.70;43.00;;;;;;5120213;27;20046;-91
2022/05/14 09:46:44;;;;;;;14.38;2.28;;;25.60;41.50;;;;;;5118696;27;20130;-91
2022/05/14 09:49:17;;;;;;;4.07;1.42;;;26.30;40.20;;;;;;5118548;27;20065;-92
2022/05/14 09:52:04;;;;;;;4.20;1.20;;;26.70;38.30;;;;;;5118131;27;20034;-91
2022/05/14 09:54:32;;;;;;;6.05;1.35;;;27.50;36.90;;;;;;5136423;27;20533;-91
2022/05/14 09:57:20;;;;;;;3.47;1.27;;;28.10;36.70;;;;;;5118071;27;20031;-91
2022/05/14 09:59:58;;;;;;;8.23;1.33;;;28.80;33.10;;;;;;5117691;27;20027;-91
2022/05/14 10:02:47;;;;;;;5.90;1.50;;;28.70;34.70;;;;;;5121403;27;20387;-91
2022/05/14 10:05:19;;;;;;;5.35;1.10;;;28.20;33.10;;;;;;5120237;27;20559;-91
2022/05/14 10:07:52;;;;;;;4.93;1.50;;;27.80;34.50;;;;;;5137172;27;20561;-89
2022/05/14 10:10:27;;;;;;;8.82;1.38;;;27.70;35.30;;;;;;5121625;27;20031;-91
2022/05/14 10:13:21;;;;;;;8.57;1.23;;;27.80;34.80;;;;;;5119793;27;20394;-90
2022/05/14 10:16:04;;;;;;;12.38;1.25;;;27.80;34.50;;;;;;5121008;27;20031;-91
2022/05/14 10:18:35;;;;;;;5.97;1.30;;;27.90;33.80;;;;;;5119342;27;20138;-91
2022/05/14 10:21:29;;;;;;;7.28;1.40;;;27.80;34.30;;;;;;5119450;27;20114;-90
2022/05/14 10:27:11;;;;;;;6.40;1.13;;;27.70;34.10;;;;;;5134284;27;20617;-93
2022/05/14 10:29:45;;;;;;;8.90;1.40;;;27.50;33.90;;;;;;5117910;27;20046;-93
2022/05/14 10:32:17;;;;;;;3.25;0.90;;;27.50;33.20;;;;;;5119883;27;20114;-93
2022/05/14 10:35:19;;;;;;;3.65;1.08;;;27.50;33.70;;;;;;5135706;27;20035;-90
2022/05/14 10:37:47;;;;;;;10.02;1.20;;;27.40;33.30;;;;;;5115667;27;20035;-93
2022/05/14 10:40:28;;;;;;;4.32;1.10;;;27.20;33.00;;;;;;5123094;27;20076;-92
2022/05/14 10:42:54;;;;;;;12.00;1.30;;;27.10;33.80;;;;;;5120190;27;20034;-91
2022/05/14 10:45:33;;;;;;;5.72;0.90;;;27.10;34.00;;;;;;5123131;27;20063;-90
2022/05/14 10:48:13;;;;;;;6.28;1.48;;;27.10;34.10;;;;;;5119922;27;20019;-90
2022/05/14 10:50:38;;;;;;;6.22;1.15;;;27.00;33.00;;;;;;5122730;27;20438;-92
2022/05/14 10:53:08;;;;;;;9.70;1.73;;;27.00;33.00;;;;;;5118499;27;20517;-91
2022/05/14 10:55:58;;;;;;;4.70;0.98;;;26.80;33.10;;;;;;5122868;27;20035;-93
2022/05/14 10:58:53;;;;;;;5.38;1.45;;;26.70;32.20;;;;;;5136153;27;20065;-92
2022/05/14 11:01:38;;;;;;;6.85;0.95;;;26.50;32.80;;;;;;5126873;27;20031;-92
2022/05/14 11:04:21;;;;;;;7.15;1.20;;;26.40;33.40;;;;;;5137049;27;20047;-90
2022/05/14 11:06:58;;;;;;;4.32;0.90;;;26.40;33.50;;;;;;5101632;28;20044;-90
2022/05/14 11:09:45;;;;;;;6.38;1.33;;;26.30;33.60;;;;;;5097143;28;20089;-91
2022/05/14 11:12:20;;;;;;;11.93;1.00;;;26.40;32.20;;;;;;5098647;28;20035;-92
2022/05/14 11:14:55;;;;;;;6.85;0.85;;;26.40;33.20;;;;;;5100072;28;20020;-91
2022/05/14 11:17:29;;;;;;;6.47;1.63;;;26.40;33.30;;;;;;5096397;28;20707;-92
2022/05/14 11:20:06;;;;;;;16.10;1.55;;;26.30;32.80;;;;;;5095171;28;20031;-90
2022/05/14 11:22:49;;;;;;;5.47;1.00;;;26.30;34.80;;;;;;5096334;28;20165;-89
2022/05/14 11:25:21;;;;;;;3.20;1.00;;;26.30;33.70;;;;;;5096232;28;20472;-90
2022/05/14 11:28:09;;;;;;;4.72;0.80;;;26.20;33.50;;;;;;5102253;28;20028;-91
2022/05/14 11:30:41;;;;;;;5.50;0.80;;;26.10;32.80;;;;;;5102178;28;20408;-92
2022/05/14 11:33:18;;;;;;;6.05;1.00;;;26.20;34.00;;;;;;5093592;28;20064;-92
2022/05/14 11:35:47;;;;;;;7.28;1.30;;;26.30;34.00;;;;;;5097274;28;20039;-90
2022/05/14 11:38:36;;;;;;;8.88;1.35;;;26.40;33.80;;;;;;5098931;28;20027;-91
2022/05/14 11:41:32;;;;;;;8.82;1.20;;;26.50;34.20;;;;;;5095771;28;20034;-89
2022/05/14 11:43:58;;;;;;;4.10;1.25;;;26.60;33.70;;;;;;5095617;28;20034;-91
2022/05/14 11:46:33;;;;;;;7.05;0.95;;;26.60;33.50;;;;;;5092601;28;20456;-90
2022/05/14 11:49:18;;;;;;;3.00;1.30;;;26.50;31.80;;;;;;5094010;28;20039;-90
2022/05/14 11:52:05;;;;;;;12.23;1.67;;;26.50;34.30;;;;;;5096647;28;20024;-91
2022/05/14 11:54:49;;;;;;;3.83;1.23;;;26.40;34.80;;;;;;5094158;28;20028;-91
2022/05/14 11:57:25;;;;;;;6.57;1.23;;;26.40;34.00;;;;;;5095796;28;20123;-91
2022/05/14 12:00:03;;;;;;;9.93;1.48;;;26.40;34.70;;;;;;5092296;28;20024;-91
2022/05/14 12:02:55;;;;;;;4.60;0.70;;;26.30;33.50;;;;;;5092443;28;20032;-91
2022/05/14 12:05:31;;;;;;;3.67;0.95;;;26.20;33.20;;;;;;5096030;28;20035;-91
2022/05/14 12:07:57;;;;;;;;;;;26.30;35.70;;;;;;5119558;28;20030;-89
2022/05/14 12:10:31;;;;;;;9.00;1.27;;;26.40;34.90;;;;;;5118043;28;20280;-90
2022/05/14 12:13:09;;;;;;;1.75;0.88;;;26.40;34.00;;;;;;5117999;28;20019;-92
2022/05/14 12:15:36;;;;;;;3.30;1.00;;;26.40;34.80;;;;;;5116924;28;20031;-92
2022/05/14 12:18:02;;;;;;;3.75;0.98;;;26.30;33.80;;;;;;5118774;28;20073;-89
2022/05/14 12:20:33;;;;;;;4.50;1.23;;;26.40;34.20;;;;;;5117913;28;20116;-88
2022/05/14 12:23:05;;;;;;;5.20;0.70;;;26.40;32.40;;;;;;5116348;28;20027;-89
2022/05/14 12:25:43;;;;;;;6.05;1.45;;;26.40;32.50;;;;;;5118769;28;20019;-92
2022/05/14 12:28:24;;;;;;;4.85;0.70;;;26.30;32.40;;;;;;5116484;28;20022;-90
2022/05/14 12:33:57;;;;;;;3.70;0.70;;;26.20;32.30;;;;;;5134786;28;20038;-90
2022/05/14 12:36:24;;;;;;;3.35;0.93;;;26.20;32.50;;;;;;5115956;28;20027;-90
2022/05/14 12:38:52;;;;;;;5.13;0.85;;;26.20;32.90;;;;;;5136126;28;20027;-90
2022/05/14 12:41:32;;;;;;;6.30;1.30;;;26.30;33.10;;;;;;5122419;28;20026;-89
2022/05/14 12:44:22;;;;;;;9.75;1.52;;;26.40;32.90;;;;;;5135188;28;20495;-91
2022/05/14 12:46:56;;;;;;;6.20;0.85;;;26.40;33.30;;;;;;5124938;28;20046;-91
2022/05/14 12:49:25;;;;;;;5.55;1.10;;;26.40;33.40;;;;;;5120895;28;20028;-90
2022/05/14 12:51:57;;;;;;;2.60;0.82;;;26.40;33.60;;;;;;5120584;28;20080;-89
2022/05/14 12:54:29;;;;;;;7.28;1.23;;;26.40;33.10;;;;;;5120014;28;20050;-88
2022/05/14 12:56:59;;;;;;;2.83;0.80;;;26.40;33.60;;;;;;5138788;27;20023;-88
2022/05/14 12:59:26;;;;;;;8.23;1.08;;;26.40;34.00;;;;;;5120551;27;20019;-89
2022/05/14 13:01:56;;;;;;;4.55;1.20;;;26.40;34.40;;;;;;5139737;27;20080;-91
2022/05/14 13:04:30;;;;;;;7.63;1.38;;;26.30;34.50;;;;;;5119586;27;20015;-89
2022/05/14 13:07:01;;;;;;;13.38;1.17;;;26.20;34.70;;;;;;5121099;27;20043;-89
2022/05/14 13:09:28;;;;;;;11.25;1.63;;;26.20;34.90;;;;;;5121027;27;20035;-89
2022/05/14 13:11:56;;;;;;;7.68;2.00;;;26.30;34.70;;;;;;5118808;27;20068;-89
2022/05/14 13:14:24;;;;;;;3.88;1.20;;;26.30;34.00;;;;;;5136856;27;20027;-88
2022/05/14 13:17:02;;;;;;;9.90;1.20;;;26.30;34.40;;;;;;5120091;27;20027;-89
2022/05/14 13:19:41;;;;;;;8.32;1.60;;;26.30;34.30;;;;;;5118996;27;20118;-89
2022/05/14 13:22:29;;;;;;;9.50;1.50;;;26.20;34.20;;;;;;5120921;27;20035;-89
2022/05/14 13:24:55;;;;;;;6.70;0.85;;;26.20;34.70;;;;;;5120228;27;20042;-90
2022/05/14 13:27:34;;;;;;;4.45;1.38;;;26.20;34.30;;;;;;5137126;27;20034;-88
2022/05/14 13:30:12;;;;;;;5.70;1.05;;;26.20;34.60;;;;;;5119655;27;20023;-90